createdAt,value
2019-01-19T00:02:27.895Z,73.09
2019-01-19T00:05:57.460Z,73.78
2019-01-19T00:08:32.825Z,72.64
2019-01-19T00:11:38.245Z,71.11
2019-01-19T00:14:21.698Z,70.99
2019-01-19T00:17:42.172Z,71.25
2019-01-19T00:20:38.608Z,71.31
2019-01-19T00:23:59.106Z,71.41
2019-01-19T00:27:16.458Z,71.85
2019-01-19T00:30:29.401Z,72.95
2019-01-19T00:33:50.575Z,73.57
2019-01-19T00:36:47.168Z,73.17
2019-01-19T00:39:50.453Z,73.05
2019-01-19T00:43:00.468Z,73.30
2019-01-19T00:46:09.142Z,73.82
2019-01-19T00:48:54.566Z,74.51
2019-01-19T00:51:41.779Z,73.96
2019-01-19T00:54:49.856Z,73.97
2019-01-19T00:57:45.931Z,73.02
2019-01-19T01:00:22.176Z,73.88
2019-01-19T01:03:15.045Z,74.47
2019-01-19T01:06:13.435Z,74.26
2019-01-19T01:09:15.259Z,74.35
2019-01-19T01:12:27.127Z,74.66
2019-01-19T01:15:49.229Z,74.26
2019-01-19T01:18:56.858Z,74.36
2019-01-19T01:22:14.125Z,72.86
2019-01-19T01:25:08.591Z,73.05
2019-01-19T01:28:21.738Z,73.51
2019-01-19T01:31:23.566Z,73.51
2019-01-19T01:34:24.038Z,73.59
2019-01-19T01:37:31.143Z,73.63
2019-01-19T01:40:26.725Z,73.05
2019-01-19T01:43:34.447Z,72.98
2019-01-19T01:46:47.592Z,73.19
2019-01-19T01:49:39.065Z,73.67
2019-01-19T01:52:49.303Z,73.91
2019-01-19T01:55:49.086Z,73.92
2019-01-19T01:58:35.710Z,74.56
2019-01-19T02:01:22.388Z,75.04
2019-01-19T02:04:41.089Z,75.95
2019-01-19T02:07:25.014Z,76.51
2019-01-19T02:10:35.981Z,76.15
2019-01-19T02:13:48.962Z,76.19
2019-01-19T02:16:43.961Z,75.66
2019-01-19T02:19:43.578Z,75.70
2019-01-19T02:22:49.262Z,75.86
2019-01-19T02:25:52.847Z,76.70
2019-01-19T02:28:32.970Z,77.14
2019-01-19T02:31:49.835Z,76.88
2019-01-19T02:34:48.860Z,76.89
2019-01-19T02:38:00.750Z,76.91
2019-01-19T02:41:00.047Z,76.01
2019-01-19T02:44:14.380Z,76.05
2019-01-19T02:47:21.332Z,76.34
2019-01-19T02:50:25.844Z,76.04
2019-01-19T02:53:45.279Z,75.36
2019-01-19T02:56:38.137Z,75.61
2019-01-19T02:59:25.980Z,76.34
2019-01-19T03:02:35.048Z,77.68
2019-01-19T03:05:37.040Z,78.43
2019-01-19T03:08:47.751Z,78.87
2019-01-19T03:12:01.206Z,80.01
2019-01-19T03:15:02.243Z,80.87
2019-01-19T03:18:23.990Z,81.90
2019-01-19T03:21:22.816Z,82.37
2019-01-19T03:24:19.747Z,82.91
2019-01-19T03:27:20.248Z,83.62
2019-01-19T03:30:36.483Z,84.33
2019-01-19T03:33:47.740Z,85.16
2019-01-19T03:36:46.445Z,85.96
2019-01-19T03:39:51.058Z,86.68
2019-01-19T03:43:04.838Z,87.23
2019-01-19T03:46:08.793Z,87.44
2019-01-19T03:49:19.951Z,87.82
2019-01-19T03:52:33.245Z,88.20
2019-01-19T03:55:43.535Z,88.44
2019-01-19T03:58:48.043Z,88.71
2019-01-19T04:02:00.422Z,89.14
2019-01-19T04:04:52.703Z,89.52
2019-01-19T04:08:03.844Z,89.45
2019-01-19T04:11:24.323Z,89.30
2019-01-19T04:14:04.673Z,89.12
2019-01-19T04:17:36.895Z,89.38
2019-01-19T04:20:39.243Z,89.58
2019-01-19T04:23:09.683Z,89.58
2019-01-19T04:26:03.638Z,89.83
2019-01-19T04:28:34.322Z,90.02
2019-01-19T04:31:04.832Z,90.11
2019-01-19T04:33:35.236Z,90.12
2019-01-19T04:36:21.237Z,89.99
2019-01-19T04:38:45.749Z,89.99
2019-01-19T04:41:16.125Z,89.99
2019-01-19T04:43:46.576Z,89.87
2019-01-19T04:46:17.065Z,89.76
2019-01-19T04:48:47.906Z,89.90
2019-01-19T04:51:18.356Z,90.12
2019-01-19T04:53:48.771Z,90.15
2019-01-19T04:56:19.154Z,90.20
2019-01-19T04:58:49.648Z,90.33
2019-01-19T05:01:20.058Z,90.37
2019-01-19T05:03:50.503Z,90.29
2019-01-19T05:06:30.041Z,90.48
2019-01-19T05:08:53.936Z,90.36
2019-01-19T05:11:24.363Z,90.06
2019-01-19T05:13:54.750Z,90.06
2019-01-19T05:16:25.128Z,90.33
2019-01-19T05:18:55.788Z,90.76
2019-01-19T05:21:26.360Z,91.21
2019-01-19T05:23:56.896Z,91.81
2019-01-19T05:26:27.317Z,92.19
2019-01-19T05:28:57.753Z,92.62
2019-01-19T05:31:28.150Z,93.03
2019-01-19T05:33:58.536Z,93.45
2019-01-19T05:36:29.018Z,93.84
2019-01-19T05:38:59.405Z,94.15
2019-01-19T05:41:29.914Z,94.44
2019-01-19T05:44:00.440Z,94.69
2019-01-19T05:46:31.660Z,94.87
2019-01-19T05:49:02.110Z,95.07
2019-01-19T05:51:32.455Z,95.23
2019-01-19T05:54:03.056Z,95.39
2019-01-19T05:56:33.555Z,95.50
2019-01-19T05:59:03.969Z,95.60
2019-01-19T06:01:34.326Z,95.71
2019-01-19T06:04:04.815Z,95.79
2019-01-19T06:06:35.234Z,95.88
2019-01-19T06:09:08.218Z,95.91
2019-01-19T06:11:38.654Z,95.91
2019-01-19T06:14:09.181Z,95.84
2019-01-19T06:16:39.574Z,95.74
2019-01-19T06:19:10.911Z,95.59
2019-01-19T06:21:54.808Z,95.46
2019-01-19T06:24:25.190Z,95.32
2019-01-19T06:26:55.595Z,95.26
2019-01-19T06:29:26.041Z,95.28
2019-01-19T06:31:56.537Z,95.26
2019-01-19T06:34:26.945Z,95.27
2019-01-19T06:36:57.330Z,95.28
2019-01-19T06:39:27.727Z,95.31
2019-01-19T06:41:58.116Z,95.34
2019-01-19T06:44:28.589Z,95.35
2019-01-19T06:46:58.971Z,95.36
2019-01-19T06:49:29.461Z,95.26
2019-01-19T06:51:59.894Z,95.18
2019-01-19T06:54:30.653Z,95.15
2019-01-19T06:57:01.008Z,95.14
2019-01-19T06:59:31.406Z,95.09
2019-01-19T07:02:01.801Z,95.06
2019-01-19T07:04:32.336Z,95.04
2019-01-19T07:07:03.106Z,94.83
2019-01-19T07:09:33.550Z,94.48
2019-01-19T07:12:04.148Z,94.08
2019-01-19T07:14:34.529Z,93.68
2019-01-19T07:17:04.956Z,93.26
2019-01-19T07:19:35.319Z,92.76
2019-01-19T07:22:05.929Z,92.21
2019-01-19T07:24:36.400Z,91.62
2019-01-19T07:27:06.805Z,91.13
2019-01-19T07:29:37.207Z,90.60
2019-01-19T07:32:07.588Z,90.23
2019-01-19T07:34:38.060Z,89.91
2019-01-19T07:37:09.874Z,89.65
2019-01-19T07:39:40.552Z,89.38
2019-01-19T07:42:11.140Z,89.04
2019-01-19T07:44:41.581Z,88.72
2019-01-19T07:47:12.403Z,88.21
2019-01-19T07:49:43.173Z,86.65
2019-01-19T07:52:13.906Z,85.49
2019-01-19T07:54:44.341Z,84.63
2019-01-19T07:57:14.771Z,84.48
2019-01-19T07:59:45.220Z,83.96
2019-01-19T08:02:15.913Z,83.60
2019-01-19T08:04:46.559Z,82.59
2019-01-19T08:07:17.561Z,82.65
2019-01-19T08:09:48.070Z,82.49
2019-01-19T08:12:18.581Z,82.42
2019-01-19T08:14:49.028Z,82.25
2019-01-19T08:17:19.486Z,82.26
2019-01-19T08:19:49.868Z,81.95
2019-01-19T08:22:20.317Z,81.89
2019-01-19T08:24:50.841Z,81.12
2019-01-19T08:27:21.343Z,80.95
2019-01-19T08:29:51.819Z,80.89
2019-01-19T08:32:23.862Z,81.00
2019-01-19T08:34:54.376Z,81.19
2019-01-19T08:37:24.771Z,80.92
2019-01-19T08:39:55.244Z,80.04
2019-01-19T08:42:25.826Z,78.41
2019-01-19T08:44:56.879Z,78.24
2019-01-19T08:47:27.392Z,77.72
2019-01-19T08:49:57.962Z,77.30
2019-01-19T08:52:28.487Z,76.64
2019-01-19T08:54:58.962Z,75.83
2019-01-19T08:57:29.351Z,75.36
2019-01-19T08:59:59.903Z,75.15
2019-01-19T09:02:30.456Z,75.39
2019-01-19T09:05:02.643Z,74.96
2019-01-19T09:07:33.844Z,73.86
2019-01-19T09:10:05.404Z,73.89
2019-01-19T09:12:35.973Z,73.72
2019-01-19T09:15:07.992Z,74.17
2019-01-19T09:17:38.426Z,73.67
2019-01-19T09:20:10.499Z,73.34
2019-01-19T09:22:40.908Z,72.77
2019-01-19T09:25:12.899Z,72.64
2019-01-19T09:27:43.445Z,71.88
2019-01-19T09:30:16.401Z,71.58
2019-01-19T09:32:46.945Z,70.91
2019-01-19T09:35:17.549Z,70.09
2019-01-19T09:37:48.022Z,70.19
2019-01-19T09:40:18.598Z,70.61
2019-01-19T09:42:49.167Z,70.57
2019-01-19T09:45:19.708Z,69.56
2019-01-19T09:47:50.111Z,69.17
2019-01-19T09:50:20.851Z,69.43
2019-01-19T09:52:51.386Z,69.10
2019-01-19T09:55:21.776Z,68.68
2019-01-19T09:57:52.146Z,69.06
2019-01-19T10:00:23.033Z,67.82
2019-01-19T10:02:53.393Z,67.38
2019-01-19T10:05:23.903Z,67.85
2019-01-19T10:07:54.344Z,67.96
2019-01-19T10:10:24.735Z,67.56
2019-01-19T10:12:55.132Z,66.33
2019-01-19T10:15:27.523Z,66.07
2019-01-19T10:17:58.235Z,66.12
2019-01-19T10:20:28.731Z,65.36
2019-01-19T10:22:59.123Z,65.74
2019-01-19T10:25:29.497Z,65.64
2019-01-19T10:27:59.966Z,65.17
2019-01-19T10:30:30.390Z,65.06
2019-01-19T10:33:00.798Z,64.79
2019-01-19T10:35:31.267Z,64.50
2019-01-19T10:38:01.652Z,64.31
2019-01-19T10:40:32.108Z,63.49
2019-01-19T10:43:02.577Z,63.65
2019-01-19T10:45:33.097Z,64.00
2019-01-19T10:48:03.712Z,64.07
2019-01-19T10:50:34.135Z,64.29
2019-01-19T10:53:04.513Z,64.23
2019-01-19T10:55:34.998Z,63.86
2019-01-19T10:58:05.792Z,64.16
2019-01-19T11:00:36.248Z,63.85
2019-01-19T11:03:06.652Z,63.17
2019-01-19T11:05:38.085Z,63.20
2019-01-19T11:08:10.293Z,63.25
2019-01-19T11:10:40.660Z,63.03
2019-01-19T11:13:13.784Z,63.30
2019-01-19T11:15:44.880Z,63.25
2019-01-19T11:18:15.388Z,62.57
2019-01-19T11:20:46.465Z,62.41
2019-01-19T11:23:17.371Z,61.89
2019-01-19T11:25:48.986Z,61.79
2019-01-19T11:28:19.954Z,61.75
2019-01-19T11:30:50.516Z,61.26
2019-01-19T11:33:21.609Z,61.54
2019-01-19T11:35:52.489Z,61.25
2019-01-19T11:38:23.528Z,61.06
2019-01-19T11:40:54.968Z,61.46
2019-01-19T11:43:25.647Z,61.28
2019-01-19T11:45:56.635Z,60.40
2019-01-19T11:48:27.644Z,60.70
2019-01-19T11:50:58.462Z,60.46
2019-01-19T11:53:29.389Z,60.26
2019-01-19T11:56:00.246Z,59.90
2019-01-19T11:58:30.710Z,59.52
2019-01-19T12:01:01.801Z,59.84
2019-01-19T12:03:32.834Z,60.29
2019-01-19T12:06:04.578Z,60.88
2019-01-19T12:08:35.427Z,61.35
2019-01-19T12:11:06.656Z,61.54
2019-01-19T12:13:37.546Z,62.10
2019-01-19T12:16:08.687Z,62.69
2019-01-19T12:18:39.288Z,62.90
2019-01-19T12:21:10.234Z,63.23
2019-01-19T12:23:40.987Z,62.80
2019-01-19T12:26:12.203Z,63.20
2019-01-19T12:28:42.910Z,63.55
2019-01-19T12:31:14.151Z,63.65
2019-01-19T12:33:45.418Z,63.41
2019-01-19T12:36:15.790Z,63.65
2019-01-19T12:38:46.825Z,63.75
2019-01-19T12:41:18.636Z,64.48
2019-01-19T12:43:49.161Z,64.59
2019-01-19T12:46:19.948Z,64.57
2019-01-19T12:48:51.181Z,65.13
2019-01-19T12:51:21.833Z,65.59
2019-01-19T12:53:53.249Z,66.03
2019-01-19T12:56:23.915Z,65.95
2019-01-19T12:58:54.802Z,66.06
2019-01-19T13:01:25.970Z,66.47
2019-01-19T13:03:58.532Z,66.39
2019-01-19T13:06:51.109Z,66.48
2019-01-19T13:09:35.686Z,66.19
2019-01-19T13:12:39.628Z,66.09
2019-01-19T13:15:56.765Z,66.22
2019-01-19T13:18:59.872Z,66.73
2019-01-19T13:22:08.778Z,66.60
2019-01-19T13:25:05.662Z,66.24
2019-01-19T13:27:59.247Z,66.54
2019-01-19T13:31:12.982Z,67.27
2019-01-19T13:34:16.256Z,67.46
2019-01-19T13:37:00.476Z,67.64
2019-01-19T13:40:28.071Z,67.81
2019-01-19T13:43:14.147Z,67.69
2019-01-19T13:46:13.297Z,67.96
2019-01-19T13:49:21.540Z,68.61
2019-01-19T13:52:18.388Z,68.83
2019-01-19T13:55:51.837Z,69.09
2019-01-19T13:58:47.261Z,69.27
2019-01-19T14:02:03.006Z,69.77
2019-01-19T14:04:43.162Z,70.31
2019-01-19T14:08:00.172Z,70.22
2019-01-19T14:10:58.310Z,70.33
2019-01-19T14:14:13.082Z,70.47
2019-01-19T14:17:21.157Z,70.71
2019-01-19T14:20:00.769Z,70.85
2019-01-19T14:23:18.308Z,71.65
2019-01-19T14:26:12.821Z,72.18
2019-01-19T14:29:17.229Z,72.52
2019-01-19T14:32:42.202Z,73.27
2019-01-19T14:36:06.530Z,73.62
2019-01-19T14:39:36.344Z,74.42
2019-01-19T14:42:47.187Z,74.86
2019-01-19T14:46:00.530Z,75.37
2019-01-19T14:49:31.108Z,75.52
2019-01-19T14:53:01.377Z,75.83
2019-01-19T14:56:12.431Z,76.45
2019-01-19T14:59:18.427Z,76.84
2019-01-19T15:02:36.064Z,77.46
2019-01-19T15:05:17.298Z,77.86
2019-01-19T15:08:26.719Z,78.03
2019-01-19T15:11:51.869Z,78.46
2019-01-19T15:14:36.862Z,78.90
2019-01-19T15:17:39.692Z,79.07
2019-01-19T15:20:28.476Z,79.30
2019-01-19T15:23:39.745Z,79.74
2019-01-19T15:26:49.022Z,79.92
2019-01-19T15:29:50.676Z,80.24
2019-01-19T15:32:34.651Z,80.18
2019-01-19T15:35:35.912Z,80.49
2019-01-19T15:39:10.748Z,80.47
2019-01-19T15:42:21.416Z,80.71
2019-01-19T15:45:40.172Z,80.93
2019-01-19T15:48:41.558Z,81.09
2019-01-19T15:51:50.410Z,81.27
2019-01-19T15:54:35.388Z,81.44
2019-01-19T15:57:34.123Z,81.09
2019-01-19T16:00:28.711Z,81.11
2019-01-19T16:03:41.793Z,81.66
2019-01-19T16:06:44.698Z,81.95
2019-01-19T16:09:58.984Z,82.02
2019-01-19T16:13:02.232Z,82.24
2019-01-19T16:16:27.234Z,82.26
2019-01-19T16:19:45.034Z,82.10
2019-01-19T16:22:38.817Z,82.31
2019-01-19T16:25:58.911Z,82.75
2019-01-19T16:29:10.738Z,82.99
2019-01-19T16:32:32.897Z,83.20
2019-01-19T16:35:41.814Z,83.23
2019-01-19T16:38:50.542Z,83.51
2019-01-19T16:41:41.853Z,83.55
2019-01-19T16:45:09.611Z,83.79
2019-01-19T16:48:41.879Z,84.07
2019-01-19T16:51:57.649Z,84.36
2019-01-19T16:55:09.551Z,84.52
2019-01-19T16:58:28.571Z,84.57
2019-01-19T17:01:37.976Z,84.42
2019-01-19T17:04:39.815Z,84.69
2019-01-19T17:07:44.932Z,84.50
2019-01-19T17:10:56.757Z,84.68
2019-01-19T17:14:21.524Z,84.75
2019-01-19T17:17:28.725Z,84.88
2019-01-19T17:20:22.352Z,85.03
2019-01-19T17:23:12.544Z,85.01
2019-01-19T17:26:24.737Z,85.09
2019-01-19T17:29:35.256Z,85.18
2019-01-19T17:32:47.609Z,85.25
2019-01-19T17:35:54.001Z,85.11
2019-01-19T17:39:05.044Z,85.17
2019-01-19T17:42:26.977Z,85.29
2019-01-19T17:45:13.419Z,85.38
2019-01-19T17:48:27.743Z,85.13
2019-01-19T17:51:25.490Z,85.45
2019-01-19T17:54:12.927Z,85.52
2019-01-19T17:57:13.510Z,85.76
2019-01-19T18:00:14.135Z,85.95
2019-01-19T18:03:40.519Z,86.05
2019-01-19T18:06:22.075Z,86.11
2019-01-19T18:09:24.042Z,86.31
2019-01-19T18:12:29.343Z,86.06
2019-01-19T18:15:44.522Z,85.42
2019-01-19T18:19:04.165Z,85.07
2019-01-19T18:22:10.637Z,85.14
2019-01-19T18:25:06.580Z,85.06
2019-01-19T18:28:26.001Z,85.21
2019-01-19T18:31:42.980Z,85.16
2019-01-19T18:34:55.749Z,85.29
2019-01-19T18:37:54.790Z,85.66
2019-01-19T18:40:52.128Z,85.41
2019-01-19T18:44:03.034Z,85.05
2019-01-19T18:47:21.089Z,85.25
2019-01-19T18:50:43.061Z,85.57
2019-01-19T18:53:40.071Z,85.70
2019-01-19T18:56:45.818Z,85.80
2019-01-19T18:59:53.405Z,86.06
2019-01-19T19:03:35.491Z,86.38
2019-01-19T19:06:37.193Z,86.23
2019-01-19T19:09:40.835Z,86.09
2019-01-19T19:12:26.581Z,86.51
2019-01-19T19:15:42.832Z,86.70
2019-01-19T19:19:02.343Z,86.75
2019-01-19T19:22:19.597Z,86.75
2019-01-19T19:25:22.759Z,86.92
2019-01-19T19:28:21.580Z,87.08
2019-01-19T19:31:34.608Z,87.33
2019-01-19T19:34:29.090Z,87.47
2019-01-19T19:37:09.667Z,87.63
2019-01-19T19:40:21.917Z,87.61
2019-01-19T19:43:23.997Z,87.82
2019-01-19T19:46:19.851Z,88.37
2019-01-19T19:49:31.836Z,88.94
2019-01-19T19:52:04.322Z,89.34
2019-01-19T19:54:36.352Z,90.07
2019-01-19T19:57:08.797Z,90.63
2019-01-19T19:59:40.718Z,90.98
2019-01-19T20:02:11.872Z,91.25
2019-01-19T20:04:42.922Z,91.50
2019-01-19T20:07:13.925Z,91.61
2019-01-19T20:09:44.869Z,91.80
2019-01-19T20:12:15.821Z,92.07
2019-01-19T20:14:46.758Z,92.21
2019-01-19T20:17:17.842Z,92.37
2019-01-19T20:19:48.721Z,92.55
2019-01-19T20:22:19.766Z,92.74
2019-01-19T20:24:50.602Z,92.91
2019-01-19T20:27:21.016Z,93.22
2019-01-19T20:29:51.903Z,93.42
2019-01-19T20:32:22.825Z,93.59
2019-01-19T20:34:53.957Z,93.67
2019-01-19T20:37:24.909Z,93.71
2019-01-19T20:39:55.954Z,93.73
2019-01-19T20:42:26.846Z,93.72
2019-01-19T20:44:58.078Z,93.87
2019-01-19T20:47:29.102Z,93.99
2019-01-19T20:49:59.488Z,94.07
2019-01-19T20:52:29.937Z,94.33
2019-01-19T20:55:00.993Z,94.62
2019-01-19T20:57:32.132Z,94.90
2019-01-19T21:00:03.324Z,95.05
2019-01-19T21:02:34.371Z,95.26
2019-01-19T21:05:05.366Z,95.43
2019-01-19T21:07:36.004Z,95.71
2019-01-19T21:10:06.692Z,95.79
2019-01-19T21:12:38.156Z,95.91
2019-01-19T21:15:10.824Z,96.04
2019-01-19T21:17:43.414Z,96.19
2019-01-19T21:20:14.463Z,96.14
2019-01-19T21:22:45.315Z,96.15
2019-01-19T21:25:16.174Z,96.21
2019-01-19T21:27:47.181Z,96.43
2019-01-19T21:30:18.449Z,96.53
2019-01-19T21:32:49.315Z,96.67
2019-01-19T21:35:20.299Z,96.93
2019-01-19T21:37:53.370Z,97.09
2019-01-19T21:40:24.144Z,97.32
2019-01-19T21:42:55.277Z,97.53
2019-01-19T21:45:26.194Z,97.75
2019-01-19T21:47:57.188Z,98.08
2019-01-19T21:50:28.364Z,98.30
2019-01-19T21:52:59.224Z,98.38
2019-01-19T21:55:30.213Z,98.42
2019-01-19T21:58:02.672Z,98.42
2019-01-19T22:00:34.242Z,98.60
2019-01-19T22:03:05.407Z,98.60
2019-01-19T22:05:37.297Z,98.65
2019-01-19T22:08:08.409Z,98.69
2019-01-19T22:10:46.147Z,98.56
2019-01-19T22:13:13.439Z,98.45
2019-01-19T22:15:44.386Z,98.40
2019-01-19T22:18:15.459Z,98.34
2019-01-19T22:20:46.448Z,98.25
2019-01-19T22:23:17.498Z,97.87
2019-01-19T22:25:50.475Z,97.52
2019-01-19T22:28:21.409Z,97.06
2019-01-19T22:30:52.661Z,96.65
2019-01-19T22:33:23.980Z,96.23
2019-01-19T22:35:54.474Z,95.67
2019-01-19T22:38:25.489Z,95.20
2019-01-19T22:40:56.441Z,94.92
2019-01-19T22:43:32.866Z,94.69
2019-01-19T22:46:05.678Z,94.27
2019-01-19T22:48:38.465Z,93.66
2019-01-19T22:51:11.339Z,93.19
2019-01-19T22:53:43.984Z,92.92
2019-01-19T22:56:14.565Z,92.73
2019-01-19T22:58:45.490Z,92.41
2019-01-19T23:01:35.976Z,92.53
2019-01-19T23:04:08.635Z,92.50
2019-01-19T23:06:39.552Z,92.42
2019-01-19T23:09:11.962Z,92.45
2019-01-19T23:11:44.879Z,92.45
2019-01-19T23:14:15.628Z,92.52
2019-01-19T23:16:46.673Z,92.80
2019-01-19T23:19:17.625Z,93.09
2019-01-19T23:21:49.594Z,93.42
2019-01-19T23:24:22.686Z,93.59
2019-01-19T23:26:56.930Z,93.92
2019-01-19T23:29:29.809Z,94.41
2019-01-19T23:32:01.422Z,94.99
2019-01-19T23:34:32.359Z,95.50
2019-01-19T23:37:02.731Z,95.59
2019-01-19T23:39:34.382Z,95.88
2019-01-19T23:42:05.464Z,96.21
2019-01-19T23:44:36.292Z,96.60
2019-01-19T23:47:07.222Z,96.65
2019-01-19T23:49:37.861Z,96.82
2019-01-19T23:52:08.989Z,97.15
2019-01-19T23:54:39.794Z,97.31
2019-01-19T23:57:11.054Z,97.13
2019-01-19T23:59:41.830Z,97.19
